Time;durP1;ratioP1;P1;durP2;ratioP2;P2;SDS_P1;SDS_P2;PMS_P1;PMS_P2;Temp;Humidity;BMP_temperature;BMP_pressure;BME280_temperature;BME280_humidity;BME280_pressure;Samples;Min_cycle;Max_cycle;Signal;HPM_P1;HPM_P2
2023/09/30 00:00:36;;;;;;;14.37;4.40;;;;;;;;;;5016991;28;20404;-57
2023/09/30 00:03:02;;;;;;;13.60;4.43;;;;;;;;;;5011769;28;20401;-57
2023/09/30 00:05:27;;;;;;;13.60;5.13;;;;;;;;;;5015371;28;20485;-57
2023/09/30 00:07:52;;;;;;;13.13;4.40;;;;;;;;;;5016570;28;20405;-57
2023/09/30 00:10:17;;;;;;;11.97;4.17;;;;;;;;;;5017923;28;20802;-57
2023/09/30 00:12:43;;;;;;;13.30;4.53;;;;;;;;;;5021198;28;20408;-58
2023/09/30 00:15:08;;;;;;;15.63;4.53;;;;;;;;;;5016532;28;20448;-58
2023/09/30 00:17:33;;;;;;;12.70;4.43;;;;;;;;;;5018789;28;20404;-58
2023/09/30 00:19:59;;;;;;;12.53;4.27;;;;;;;;;;5020923;28;20411;-57
2023/09/30 00:22:24;;;;;;;12.23;4.60;;;;;;;;;;5024104;28;20393;-57
2023/09/30 00:24:50;;;;;;;10.90;4.00;;;;;;;;;;5018070;28;20939;-57
2023/09/30 00:27:15;;;;;;;11.02;3.92;;;;;;;;;;5017018;28;20391;-57
2023/09/30 00:29:41;;;;;;;12.80;4.50;;;;;;;;;;5025524;28;20467;-58
2023/09/30 00:32:06;;;;;;;12.60;4.20;;;;;;;;;;5016406;28;20412;-58
2023/09/30 00:34:32;;;;;;;11.53;4.43;;;;;;;;;;5018585;28;20407;-57
2023/09/30 00:36:57;;;;;;;11.70;4.15;;;;;;;;;;5016569;28;20975;-58
2023/09/30 00:39:22;;;;;;;13.23;4.77;;;;;;;;;;5023681;28;20379;-57
2023/09/30 00:41:48;;;;;;;14.33;4.30;;;;;;;;;;5018382;28;20407;-58
2023/09/30 00:44:13;;;;;;;13.70;4.60;;;;;;;;;;5016555;28;20936;-57
2023/09/30 00:46:40;;;;;;;14.57;4.50;;;;;;;;;;5022798;28;20431;-57
2023/09/30 00:49:05;;;;;;;12.63;4.47;;;;;;;;;;5021517;28;20411;-57
2023/09/30 00:51:30;;;;;;;11.87;4.70;;;;;;;;;;5020576;28;20411;-58
2023/09/30 00:53:56;;;;;;;12.87;4.63;;;;;;;;;;5015711;28;20984;-57
2023/09/30 00:56:23;;;;;;;15.48;4.80;;;;;;;;;;5023966;28;20384;-58
2023/09/30 00:58:51;;;;;;;14.20;4.63;;;;;;;;;;5016958;28;20443;-57
2023/09/30 01:01:16;;;;;;;13.38;4.35;;;;;;;;;;5015167;28;20407;-58
2023/09/30 01:03:41;;;;;;;13.90;4.27;;;;;;;;;;5023915;28;20414;-58
2023/09/30 01:06:06;;;;;;;12.00;4.43;;;;;;;;;;5015459;28;20433;-58
2023/09/30 01:08:32;;;;;;;13.30;4.57;;;;;;;;;;5016696;28;20436;-58
2023/09/30 01:10:57;;;;;;;12.67;4.70;;;;;;;;;;5023715;28;20843;-58
2023/09/30 01:13:22;;;;;;;12.70;4.70;;;;;;;;;;5014304;28;20852;-57
2023/09/30 01:15:47;;;;;;;13.70;5.07;;;;;;;;;;5017028;28;20410;-57
2023/09/30 01:18:13;;;;;;;13.97;4.40;;;;;;;;;;5015079;28;20399;-57
2023/09/30 01:20:38;;;;;;;12.47;4.37;;;;;;;;;;5023257;28;20392;-58
2023/09/30 01:23:03;;;;;;;13.75;4.88;;;;;;;;;;5017328;28;20989;-58
2023/09/30 01:25:29;;;;;;;12.70;4.80;;;;;;;;;;5015381;28;20496;-58
2023/09/30 01:27:54;;;;;;;13.87;4.70;;;;;;;;;;5023337;28;20478;-58
2023/09/30 01:30:22;;;;;;;14.00;5.27;;;;;;;;;;5016573;28;20756;-58
2023/09/30 01:32:48;;;;;;;15.45;5.10;;;;;;;;;;5016389;28;20442;-57
2023/09/30 01:35:13;;;;;;;11.43;4.70;;;;;;;;;;5022646;28;21014;-58
2023/09/30 01:37:38;;;;;;;14.70;5.33;;;;;;;;;;5015714;28;21252;-58
2023/09/30 01:40:04;;;;;;;16.03;5.37;;;;;;;;;;5017155;28;20399;-57
2023/09/30 01:42:29;;;;;;;12.70;5.15;;;;;;;;;;5014645;28;20447;-58
2023/09/30 01:44:54;;;;;;;13.50;5.57;;;;;;;;;;5023464;28;20410;-58
2023/09/30 01:47:19;;;;;;;14.10;5.20;;;;;;;;;;5018195;28;20475;-58
2023/09/30 01:49:45;;;;;;;15.13;4.77;;;;;;;;;;5021583;28;20409;-58
2023/09/30 01:52:10;;;;;;;11.43;4.60;;;;;;;;;;5014500;28;20444;-58
2023/09/30 01:54:36;;;;;;;10.77;4.30;;;;;;;;;;5020385;28;20427;-58
2023/09/30 01:57:02;;;;;;;13.13;4.78;;;;;;;;;;5019802;28;20418;-59
2023/09/30 01:59:28;;;;;;;12.30;4.93;;;;;;;;;;5014654;28;20824;-57
2023/09/30 02:01:54;;;;;;;12.73;4.95;;;;;;;;;;5022244;28;20391;-57
2023/09/30 02:04:19;;;;;;;12.90;5.20;;;;;;;;;;5017448;28;20417;-58
2023/09/30 02:06:44;;;;;;;12.60;5.27;;;;;;;;;;5015121;28;21077;-57
2023/09/30 02:09:09;;;;;;;11.00;4.93;;;;;;;;;;5022059;28;20410;-58
2023/09/30 02:11:35;;;;;;;11.87;5.40;;;;;;;;;;5016828;28;20419;-58
2023/09/30 02:14:01;;;;;;;12.10;5.43;;;;;;;;;;5014831;28;20958;-58
2023/09/30 02:16:27;;;;;;;11.05;4.90;;;;;;;;;;5022548;28;20779;-58
2023/09/30 02:18:53;;;;;;;11.07;4.90;;;;;;;;;;5007951;28;20451;-57
2023/09/30 02:21:18;;;;;;;13.25;5.20;;;;;;;;;;5005762;28;20416;-58
2023/09/30 02:23:47;;;;;;;13.03;5.60;;;;;;;;;;5007413;28;20788;-58
2023/09/30 02:26:13;;;;;;;12.95;5.78;;;;;;;;;;5002042;28;20392;-57
2023/09/30 02:28:38;;;;;;;14.77;5.53;;;;;;;;;;5016469;28;20410;-57
2023/09/30 02:31:03;;;;;;;13.23;5.97;;;;;;;;;;5000828;28;20435;-58
2023/09/30 02:33:29;;;;;;;13.00;5.57;;;;;;;;;;5001975;28;20404;-58
2023/09/30 02:35:54;;;;;;;11.43;5.78;;;;;;;;;;4999736;28;20478;-58
2023/09/30 02:38:20;;;;;;;11.93;5.90;;;;;;;;;;5000051;28;20432;-58
2023/09/30 02:40:48;;;;;;;13.82;5.80;;;;;;;;;;5004369;28;20469;-58
2023/09/30 02:43:13;;;;;;;12.97;5.40;;;;;;;;;;5003761;28;20421;-58
2023/09/30 02:45:38;;;;;;;11.37;5.40;;;;;;;;;;5003631;28;20752;-58
2023/09/30 02:48:04;;;;;;;12.45;5.90;;;;;;;;;;5004650;28;20495;-58
2023/09/30 02:50:29;;;;;;;13.40;6.00;;;;;;;;;;5004555;28;20393;-57
2023/09/30 02:52:55;;;;;;;15.27;6.30;;;;;;;;;;5007395;28;20953;-57
2023/09/30 02:55:20;;;;;;;11.50;6.00;;;;;;;;;;4997141;28;20409;-57
2023/09/30 02:57:46;;;;;;;11.43;6.07;;;;;;;;;;4996226;28;21150;-58
2023/09/30 03:00:23;;;;;;;12.43;6.15;;;;;;;;;;4996848;28;20872;-57
2023/09/30 03:02:50;;;;;;;14.27;6.40;;;;;;;;;;5005187;28;20412;-57
2023/09/30 03:05:16;;;;;;;15.35;6.50;;;;;;;;;;5006012;28;20977;-58
2023/09/30 03:07:41;;;;;;;15.77;6.55;;;;;;;;;;5003610;28;20423;-57
2023/09/30 03:10:08;;;;;;;11.40;6.10;;;;;;;;;;5004376;28;20408;-58
2023/09/30 03:12:34;;;;;;;14.83;6.83;;;;;;;;;;5008503;28;20411;-58
2023/09/30 03:14:59;;;;;;;11.75;6.25;;;;;;;;;;5007609;28;20404;-57
2023/09/30 03:17:25;;;;;;;13.47;6.40;;;;;;;;;;4999354;28;21285;-58
2023/09/30 03:19:51;;;;;;;12.18;6.53;;;;;;;;;;4999765;28;20405;-57
2023/09/30 03:22:16;;;;;;;15.43;7.00;;;;;;;;;;5017509;28;20422;-58
2023/09/30 03:24:43;;;;;;;14.70;6.43;;;;;;;;;;5025472;28;21226;-57
2023/09/30 03:27:08;;;;;;;12.47;6.60;;;;;;;;;;5024828;28;20435;-58
2023/09/30 03:29:35;;;;;;;13.03;6.80;;;;;;;;;;5021698;28;20457;-58
2023/09/30 03:32:00;;;;;;;13.80;6.30;;;;;;;;;;5025233;28;21520;-58
2023/09/30 03:34:26;;;;;;;13.53;6.57;;;;;;;;;;5016671;28;20404;-57
2023/09/30 03:36:54;;;;;;;13.50;6.73;;;;;;;;;;5021376;28;20567;-57
2023/09/30 03:39:26;;;;;;;12.80;6.70;;;;;;;;;;5023471;28;20912;-58
2023/09/30 03:41:52;;;;;;;13.43;6.95;;;;;;;;;;5016840;28;20434;-58
2023/09/30 03:44:17;;;;;;;14.20;6.90;;;;;;;;;;5017765;28;20409;-57
2023/09/30 03:46:43;;;;;;;11.97;6.80;;;;;;;;;;5019683;28;20459;-58
2023/09/30 03:49:08;;;;;;;13.73;6.90;;;;;;;;;;5023919;28;20459;-57
2023/09/30 03:51:33;;;;;;;13.07;6.83;;;;;;;;;;5012871;28;20435;-58
2023/09/30 03:53:58;;;;;;;14.00;6.80;;;;;;;;;;5012295;28;20416;-57
2023/09/30 03:56:24;;;;;;;13.10;7.37;;;;;;;;;;5015288;28;20402;-58
2023/09/30 03:58:49;;;;;;;12.37;6.77;;;;;;;;;;5032423;28;20428;-58
2023/09/30 04:01:14;;;;;;;15.18;7.20;;;;;;;;;;5031127;28;20616;-58
2023/09/30 04:03:40;;;;;;;11.10;7.00;;;;;;;;;;5031991;28;20472;-58
2023/09/30 04:06:06;;;;;;;13.67;7.70;;;;;;;;;;5031434;28;20784;-58
2023/09/30 04:08:33;;;;;;;12.93;7.53;;;;;;;;;;5031507;28;20502;-57
2023/09/30 04:10:59;;;;;;;14.65;7.07;;;;;;;;;;4999709;28;20412;-58
2023/09/30 04:13:24;;;;;;;14.18;7.80;;;;;;;;;;5002180;28;20774;-58
2023/09/30 04:15:49;;;;;;;12.82;7.75;;;;;;;;;;5002216;28;20941;-58
2023/09/30 04:18:15;;;;;;;13.40;7.70;;;;;;;;;;5002076;28;20421;-58
2023/09/30 04:20:40;;;;;;;14.30;7.63;;;;;;;;;;5002434;28;20694;-58
2023/09/30 04:23:06;;;;;;;13.23;7.60;;;;;;;;;;5001342;28;20421;-57
2023/09/30 04:25:32;;;;;;;14.23;7.70;;;;;;;;;;5002061;28;20459;-58
2023/09/30 04:27:57;;;;;;;13.40;7.80;;;;;;;;;;4996656;28;20400;-58
2023/09/30 04:30:22;;;;;;;13.47;7.90;;;;;;;;;;4994084;28;20760;-58
2023/09/30 04:32:48;;;;;;;13.68;7.85;;;;;;;;;;4993829;28;20662;-58
2023/09/30 04:35:13;;;;;;;13.60;7.90;;;;;;;;;;4998946;28;21030;-58
2023/09/30 04:37:38;;;;;;;12.37;7.83;;;;;;;;;;5001526;28;20401;-57
2023/09/30 04:40:07;;;;;;;14.57;7.73;;;;;;;;;;5001331;28;20496;-58
2023/09/30 04:42:32;;;;;;;13.82;8.05;;;;;;;;;;5021433;28;20750;-58
2023/09/30 04:44:59;;;;;;;13.70;8.13;;;;;;;;;;5004849;28;20419;-57
2023/09/30 04:47:24;;;;;;;11.73;7.72;;;;;;;;;;5014131;28;20911;-58
2023/09/30 04:49:51;;;;;;;12.30;7.83;;;;;;;;;;4999251;28;20428;-57
2023/09/30 04:52:16;;;;;;;11.57;7.53;;;;;;;;;;5012321;28;20618;-58
2023/09/30 04:54:41;;;;;;;12.97;7.83;;;;;;;;;;4994251;28;20486;-57
2023/09/30 04:57:06;;;;;;;15.17;8.27;;;;;;;;;;4996305;28;20432;-58
2023/09/30 04:59:32;;;;;;;13.05;7.82;;;;;;;;;;5000969;28;20880;-58
2023/09/30 05:01:57;;;;;;;13.63;8.13;;;;;;;;;;5001437;28;20424;-58
2023/09/30 05:04:24;;;;;;;14.30;8.17;;;;;;;;;;5001248;28;20408;-58
2023/09/30 05:06:49;;;;;;;13.40;7.63;;;;;;;;;;5020038;28;20407;-57
2023/09/30 05:09:14;;;;;;;14.73;8.33;;;;;;;;;;5020557;28;20403;-57
2023/09/30 05:11:39;;;;;;;14.30;9.33;;;;;;;;;;5019854;28;20399;-57
2023/09/30 05:14:05;;;;;;;18.43;9.37;;;;;;;;;;5012806;28;20402;-57
2023/09/30 05:16:31;;;;;;;15.05;9.32;;;;;;;;;;5004943;28;20797;-58
2023/09/30 05:18:56;;;;;;;13.57;8.88;;;;;;;;;;4995602;28;20918;-58
2023/09/30 05:21:22;;;;;;;13.63;8.53;;;;;;;;;;5006731;28;20399;-58
2023/09/30 05:23:47;;;;;;;15.13;9.60;;;;;;;;;;5004155;28;20910;-59
2023/09/30 05:26:12;;;;;;;16.00;9.00;;;;;;;;;;5003563;28;20411;-58
2023/09/30 05:28:39;;;;;;;14.30;8.70;;;;;;;;;;5006466;28;21279;-58
2023/09/30 05:31:04;;;;;;;14.40;8.90;;;;;;;;;;5006854;28;20426;-58
2023/09/30 05:33:30;;;;;;;15.63;9.93;;;;;;;;;;5003153;28;20863;-57
2023/09/30 05:35:55;;;;;;;14.13;9.80;;;;;;;;;;4999425;28;20409;-58
2023/09/30 05:38:23;;;;;;;16.02;9.18;;;;;;;;;;4998069;28;20409;-58
2023/09/30 05:40:49;;;;;;;14.45;8.82;;;;;;;;;;4995773;28;21113;-58
2023/09/30 05:43:14;;;;;;;14.60;9.67;;;;;;;;;;5006326;28;20399;-58
2023/09/30 05:45:48;;;;;;;15.97;9.43;;;;;;;;;;5019049;28;20391;-58
2023/09/30 05:48:14;;;;;;;16.08;9.27;;;;;;;;;;5019110;28;20451;-58
2023/09/30 05:50:39;;;;;;;14.37;9.13;;;;;;;;;;5023635;28;20441;-58
2023/09/30 05:53:04;;;;;;;15.10;8.83;;;;;;;;;;5020767;28;20419;-58
2023/09/30 05:55:30;;;;;;;14.87;9.20;;;;;;;;;;5018805;28;20496;-58
2023/09/30 05:57:55;;;;;;;14.67;9.37;;;;;;;;;;5014962;28;20412;-58
2023/09/30 06:00:21;;;;;;;15.38;8.93;;;;;;;;;;5022904;28;20486;-57
2023/09/30 06:02:47;;;;;;;13.93;8.80;;;;;;;;;;5016738;28;20407;-58
2023/09/30 06:05:12;;;;;;;13.43;8.95;;;;;;;;;;5019547;28;20879;-58
2023/09/30 06:07:37;;;;;;;13.60;8.80;;;;;;;;;;5022993;28;20431;-58
2023/09/30 06:10:03;;;;;;;14.67;9.57;;;;;;;;;;5015726;28;20448;-58
2023/09/30 06:12:29;;;;;;;15.18;9.15;;;;;;;;;;5015100;28;20764;-58
2023/09/30 06:14:54;;;;;;;15.00;9.27;;;;;;;;;;5014447;28;20412;-58
2023/09/30 06:17:22;;;;;;;12.73;9.27;;;;;;;;;;5021008;28;20407;-58
2023/09/30 06:19:48;;;;;;;15.80;8.95;;;;;;;;;;5018793;28;20410;-58
2023/09/30 06:22:14;;;;;;;15.68;9.18;;;;;;;;;;5013784;28;20425;-59
2023/09/30 06:24:39;;;;;;;15.68;9.55;;;;;;;;;;5014872;28;20408;-58
2023/09/30 06:27:05;;;;;;;15.03;9.30;;;;;;;;;;5017709;28;20967;-58
2023/09/30 06:29:30;;;;;;;15.05;9.57;;;;;;;;;;5021888;28;20431;-58
2023/09/30 06:31:56;;;;;;;15.57;9.70;;;;;;;;;;5014487;28;20417;-58
2023/09/30 06:34:21;;;;;;;14.63;10.00;;;;;;;;;;5020112;28;20870;-58
2023/09/30 06:36:46;;;;;;;13.70;9.33;;;;;;;;;;5019515;28;20407;-58
2023/09/30 06:39:11;;;;;;;15.00;9.37;;;;;;;;;;5014052;28;20953;-58
2023/09/30 06:41:37;;;;;;;14.97;9.33;;;;;;;;;;5022160;28;20391;-58
2023/09/30 06:44:02;;;;;;;14.80;9.13;;;;;;;;;;5017057;28;20406;-59
2023/09/30 06:46:27;;;;;;;14.60;8.67;;;;;;;;;;5025300;28;20507;-58
2023/09/30 06:48:53;;;;;;;14.83;8.90;;;;;;;;;;5018544;28;20915;-58
2023/09/30 06:51:18;;;;;;;14.10;8.63;;;;;;;;;;5019397;28;20435;-58
2023/09/30 06:53:43;;;;;;;13.13;8.70;;;;;;;;;;5020963;28;20464;-58
2023/09/30 06:56:08;;;;;;;14.40;8.70;;;;;;;;;;5018058;28;20416;-58
2023/09/30 06:58:34;;;;;;;15.23;8.57;;;;;;;;;;5023383;28;20477;-58
2023/09/30 07:00:59;;;;;;;14.18;8.43;;;;;;;;;;5022723;28;20823;-58
2023/09/30 07:03:24;;;;;;;14.32;8.68;;;;;;;;;;5025443;28;20404;-58
2023/09/30 07:05:50;;;;;;;14.83;8.97;;;;;;;;;;5017485;28;20404;-58
2023/09/30 07:08:16;;;;;;;14.00;9.30;;;;;;;;;;5019850;28;20913;-58
2023/09/30 07:10:41;;;;;;;15.27;8.80;;;;;;;;;;5025854;28;20405;-58
2023/09/30 07:13:07;;;;;;;15.30;9.07;;;;;;;;;;5016819;28;20572;-58
2023/09/30 07:15:32;;;;;;;12.83;8.57;;;;;;;;;;5022203;28;20402;-58
2023/09/30 07:17:58;;;;;;;15.02;8.80;;;;;;;;;;5024255;28;20419;-58
2023/09/30 07:20:23;;;;;;;13.50;8.50;;;;;;;;;;5016727;28;20472;-58
2023/09/30 07:22:48;;;;;;;12.77;8.03;;;;;;;;;;5024034;28;20451;-58
2023/09/30 07:25:16;;;;;;;12.27;7.60;;;;;;;;;;5021084;28;21462;-59
2023/09/30 07:27:41;;;;;;;13.18;7.95;;;;;;;;;;5025622;28;20417;-58
2023/09/30 07:30:07;;;;;;;13.23;7.97;;;;;;;;;;5024711;28;20395;-59
2023/09/30 07:32:32;;;;;;;11.80;7.60;;;;;;;;;;5019350;28;21099;-59
2023/09/30 07:34:57;;;;;;;12.27;7.13;;;;;;;;;;5017260;28;20409;-58
2023/09/30 07:37:23;;;;;;;13.27;7.87;;;;;;;;;;5025218;28;20389;-59
2023/09/30 07:39:48;;;;;;;13.07;7.33;;;;;;;;;;5018354;28;20409;-58
2023/09/30 07:42:13;;;;;;;13.43;7.37;;;;;;;;;;5018051;28;20468;-58
2023/09/30 07:44:39;;;;;;;11.73;6.87;;;;;;;;;;5025425;28;20404;-58
2023/09/30 07:47:06;;;;;;;12.87;7.20;;;;;;;;;;5023042;28;20396;-59
2023/09/30 07:49:32;;;;;;;11.88;6.80;;;;;;;;;;5020936;28;20411;-58
2023/09/30 07:51:57;;;;;;;11.07;6.80;;;;;;;;;;5017154;28;20495;-58
2023/09/30 07:54:23;;;;;;;13.43;7.10;;;;;;;;;;5025390;28;20486;-58
2023/09/30 07:56:49;;;;;;;12.75;7.43;;;;;;;;;;5019081;28;20410;-58
2023/09/30 07:59:15;;;;;;;15.00;7.53;;;;;;;;;;5017280;28;20410;-59
2023/09/30 08:01:40;;;;;;;13.98;6.82;;;;;;;;;;5024381;28;20410;-58
2023/09/30 08:04:06;;;;;;;12.10;7.07;;;;;;;;;;5017673;28;20807;-59
2023/09/30 08:06:31;;;;;;;13.33;7.40;;;;;;;;;;5018758;28;20486;-59
2023/09/30 08:08:56;;;;;;;14.23;7.40;;;;;;;;;;5024225;28;20409;-59
2023/09/30 08:11:22;;;;;;;12.10;6.53;;;;;;;;;;5016419;28;20451;-58
2023/09/30 08:13:47;;;;;;;14.47;7.20;;;;;;;;;;5019118;28;20441;-58
2023/09/30 08:16:13;;;;;;;13.30;7.20;;;;;;;;;;5023745;28;20417;-58
2023/09/30 08:18:38;;;;;;;12.77;7.03;;;;;;;;;;5016763;28;20412;-58
2023/09/30 08:21:04;;;;;;;13.30;7.20;;;;;;;;;;5020676;28;20411;-59
2023/09/30 08:23:30;;;;;;;12.25;7.05;;;;;;;;;;5022169;28;20407;-58
2023/09/30 08:25:57;;;;;;;15.65;7.78;;;;;;;;;;5016221;28;20403;-58
2023/09/30 08:28:23;;;;;;;12.25;7.10;;;;;;;;;;5017398;28;20399;-58
2023/09/30 08:30:49;;;;;;;13.17;7.20;;;;;;;;;;5017431;28;20403;-58
2023/09/30 08:33:14;;;;;;;13.65;7.25;;;;;;;;;;5024304;28;20411;-59
2023/09/30 08:35:39;;;;;;;13.07;7.30;;;;;;;;;;5015906;28;20499;-58
2023/09/30 08:38:05;;;;;;;16.03;7.43;;;;;;;;;;5019035;28;20445;-59
2023/09/30 08:40:30;;;;;;;14.80;7.40;;;;;;;;;;5024207;28;20486;-58
2023/09/30 08:42:56;;;;;;;12.53;6.73;;;;;;;;;;5015488;28;20450;-58
2023/09/30 08:45:21;;;;;;;13.97;7.07;;;;;;;;;;5016966;28;20393;-58
2023/09/30 08:47:46;;;;;;;13.03;7.00;;;;;;;;;;5016459;28;20399;-58
2023/09/30 08:50:12;;;;;;;13.63;7.00;;;;;;;;;;5023112;28;20419;-59
2023/09/30 08:52:37;;;;;;;15.23;7.30;;;;;;;;;;5016499;28;20408;-58
2023/09/30 08:55:03;;;;;;;15.95;7.10;;;;;;;;;;5018182;28;20419;-59
2023/09/30 08:57:29;;;;;;;14.30;6.85;;;;;;;;;;5027788;28;20415;-59
2023/09/30 08:59:54;;;;;;;14.43;6.97;;;;;;;;;;5023870;28;20398;-58
2023/09/30 09:02:19;;;;;;;14.20;6.87;;;;;;;;;;5016443;28;20402;-58
2023/09/30 09:04:45;;;;;;;12.77;6.73;;;;;;;;;;5015520;28;20407;-58
2023/09/30 09:07:10;;;;;;;13.50;6.63;;;;;;;;;;5023171;28;20940;-58
2023/09/30 09:09:36;;;;;;;13.80;6.93;;;;;;;;;;5016998;28;20408;-58
2023/09/30 09:12:02;;;;;;;14.73;7.17;;;;;;;;;;5015885;28;20832;-59
2023/09/30 09:14:37;;;;;;;12.80;6.70;;;;;;;;;;5023813;28;21388;-58
2023/09/30 09:17:04;;;;;;;13.47;7.00;;;;;;;;;;5015160;28;20396;-59
2023/09/30 09:19:30;;;;;;;14.27;6.90;;;;;;;;;;5018021;28;20391;-59
2023/09/30 09:21:56;;;;;;;12.87;6.77;;;;;;;;;;5023423;28;20411;-58
2023/09/30 09:24:28;;;;;;;12.90;6.50;;;;;;;;;;5015002;28;20407;-59
2023/09/30 09:27:03;;;;;;;14.60;6.90;;;;;;;;;;5016147;28;20431;-58
2023/09/30 09:29:28;;;;;;;14.47;6.80;;;;;;;;;;5017490;28;20408;-59
2023/09/30 09:31:53;;;;;;;13.97;6.53;;;;;;;;;;5014873;28;20403;-59
2023/09/30 09:34:19;;;;;;;12.90;6.47;;;;;;;;;;5021322;28;20415;-59
2023/09/30 09:36:45;;;;;;;13.20;5.87;;;;;;;;;;5018013;28;20405;-58
2023/09/30 09:39:14;;;;;;;15.10;6.18;;;;;;;;;;5014680;28;20878;-59
2023/09/30 09:41:51;;;;;;;14.65;6.78;;;;;;;;;;5014907;28;20436;-59
2023/09/30 09:44:17;;;;;;;14.52;6.13;;;;;;;;;;5016143;28;20416;-58
2023/09/30 09:46:42;;;;;;;12.97;5.97;;;;;;;;;;5016933;28;20395;-59
2023/09/30 09:49:07;;;;;;;13.27;6.13;;;;;;;;;;5013128;28;20441;-59
2023/09/30 09:51:32;;;;;;;14.03;6.00;;;;;;;;;;5015209;28;20397;-59
2023/09/30 09:53:58;;;;;;;13.27;6.25;;;;;;;;;;5017434;28;20409;-59
2023/09/30 09:56:23;;;;;;;14.00;6.32;;;;;;;;;;5028835;28;20857;-59
2023/09/30 09:58:49;;;;;;;13.33;5.93;;;;;;;;;;5014761;28;20410;-59
2023/09/30 10:01:14;;;;;;;10.50;5.70;;;;;;;;;;5017663;28;20407;-58
2023/09/30 10:03:40;;;;;;;13.33;6.10;;;;;;;;;;5020422;28;20413;-58
2023/09/30 10:06:05;;;;;;;12.03;5.70;;;;;;;;;;5014666;28;20410;-59
2023/09/30 10:08:33;;;;;;;11.70;6.17;;;;;;;;;;5019800;28;20434;-58
2023/09/30 10:10:59;;;;;;;11.88;5.63;;;;;;;;;;5018266;28;20498;-59
2023/09/30 10:13:43;;;;;;;12.25;5.80;;;;;;;;;;5014332;28;20385;-59
2023/09/30 10:16:08;;;;;;;13.60;5.72;;;;;;;;;;5013838;28;20432;-59
2023/09/30 10:18:42;;;;;;;12.27;5.50;;;;;;;;;;5018776;28;20482;-58
2023/09/30 10:21:09;;;;;;;12.73;5.43;;;;;;;;;;5021643;28;20400;-59
2023/09/30 10:23:34;;;;;;;11.90;4.55;;;;;;;;;;5026701;28;21361;-59
2023/09/30 10:26:15;;;;;;;11.27;4.83;;;;;;;;;;5018787;28;20397;-59
2023/09/30 10:28:41;;;;;;;11.85;5.10;;;;;;;;;;5022236;28;20426;-59
2023/09/30 10:31:08;;;;;;;11.90;4.78;;;;;;;;;;5029189;28;20783;-59
2023/09/30 10:33:34;;;;;;;13.75;5.25;;;;;;;;;;5018372;28;21078;-58
2023/09/30 10:35:59;;;;;;;10.83;5.00;;;;;;;;;;5024336;28;20391;-59
2023/09/30 10:38:24;;;;;;;12.03;4.77;;;;;;;;;;5022619;28;20385;-59
2023/09/30 10:40:51;;;;;;;13.47;4.90;;;;;;;;;;5018916;28;20871;-58
2023/09/30 10:43:31;;;;;;;12.93;4.88;;;;;;;;;;5025299;28;20510;-59
2023/09/30 10:45:56;;;;;;;11.68;4.25;;;;;;;;;;5022720;28;20419;-58
2023/09/30 10:48:28;;;;;;;10.10;4.28;;;;;;;;;;5024602;28;20412;-59
2023/09/30 10:50:56;;;;;;;12.35;4.60;;;;;;;;;;5017326;28;20811;-59
2023/09/30 10:53:21;;;;;;;11.45;4.38;;;;;;;;;;5018539;28;20400;-59
2023/09/30 10:55:47;;;;;;;12.33;4.40;;;;;;;;;;5021391;28;20795;-59
2023/09/30 10:58:12;;;;;;;10.63;4.10;;;;;;;;;;5017097;28;20480;-59
2023/09/30 11:00:38;;;;;;;10.40;4.47;;;;;;;;;;5017165;28;20463;-59
2023/09/30 11:03:03;;;;;;;12.43;4.60;;;;;;;;;;5013392;28;20463;-59
2023/09/30 11:05:29;;;;;;;8.88;3.83;;;;;;;;;;5019837;28;20421;-59
2023/09/30 11:07:57;;;;;;;10.80;3.90;;;;;;;;;;5027958;28;21244;-58
2023/09/30 11:10:22;;;;;;;10.20;3.50;;;;;;;;;;5015851;28;20397;-58
2023/09/30 11:12:54;;;;;;;10.80;3.60;;;;;;;;;;5019321;28;20447;-58
2023/09/30 11:15:19;;;;;;;9.77;4.13;;;;;;;;;;5024521;28;20412;-58
2023/09/30 11:17:45;;;;;;;10.00;3.67;;;;;;;;;;5017305;28;20409;-58
2023/09/30 11:20:11;;;;;;;10.70;3.77;;;;;;;;;;5022661;28;20399;-59
2023/09/30 11:22:36;;;;;;;10.23;3.92;;;;;;;;;;5023137;28;20426;-58
2023/09/30 11:25:03;;;;;;;12.98;4.65;;;;;;;;;;5016589;28;20414;-59
2023/09/30 11:27:29;;;;;;;9.45;3.78;;;;;;;;;;5024349;28;20913;-58
2023/09/30 11:29:54;;;;;;;10.88;3.85;;;;;;;;;;5020599;28;20534;-58
2023/09/30 11:32:26;;;;;;;9.10;3.10;;;;;;;;;;5023759;28;20822;-58
2023/09/30 11:34:52;;;;;;;9.38;3.00;;;;;;;;;;5025541;28;20408;-58
2023/09/30 11:37:17;;;;;;;7.53;2.47;;;;;;;;;;5019089;28;20734;-58
2023/09/30 11:39:42;;;;;;;9.50;2.57;;;;;;;;;;5018009;28;20415;-58
2023/09/30 11:42:16;;;;;;;9.43;2.60;;;;;;;;;;5025055;28;20497;-58
2023/09/30 11:44:47;;;;;;;9.02;2.42;;;;;;;;;;5017624;28;20759;-58
2023/09/30 11:47:12;;;;;;;7.78;2.60;;;;;;;;;;5019051;28;20436;-58
2023/09/30 11:49:38;;;;;;;9.10;2.50;;;;;;;;;;5017008;28;20462;-58
2023/09/30 11:52:04;;;;;;;8.15;2.40;;;;;;;;;;5024808;28;21266;-59
2023/09/30 11:54:32;;;;;;;7.53;2.72;;;;;;;;;;5021154;28;20518;-58
2023/09/30 11:56:58;;;;;;;7.97;2.50;;;;;;;;;;5022866;28;20923;-58
2023/09/30 11:59:24;;;;;;;8.77;2.70;;;;;;;;;;5016662;28;20389;-58
2023/09/30 12:01:49;;;;;;;8.43;2.83;;;;;;;;;;5023256;28;20403;-58
2023/09/30 12:04:17;;;;;;;9.97;2.93;;;;;;;;;;5020116;28;20426;-58
2023/09/30 12:06:42;;;;;;;6.97;2.50;;;;;;;;;;5016339;28;20407;-58
2023/09/30 12:09:13;;;;;;;9.03;2.50;;;;;;;;;;5024372;28;20402;-58
2023/09/30 12:11:38;;;;;;;6.97;2.42;;;;;;;;;;5020987;28;20422;-58
2023/09/30 12:14:04;;;;;;;9.63;2.63;;;;;;;;;;5022362;28;20413;-58
2023/09/30 12:16:30;;;;;;;9.27;2.80;;;;;;;;;;5016430;28;21094;-58
2023/09/30 12:18:56;;;;;;;8.18;2.97;;;;;;;;;;5022796;28;20410;-58
2023/09/30 12:21:22;;;;;;;10.20;2.60;;;;;;;;;;5020001;28;20752;-58
2023/09/30 12:23:48;;;;;;;8.23;2.50;;;;;;;;;;5024418;28;20522;-58
2023/09/30 12:26:14;;;;;;;8.05;2.58;;;;;;;;;;5016026;28;20471;-58
2023/09/30 12:28:40;;;;;;;9.70;2.90;;;;;;;;;;5018662;28;20556;-58
2023/09/30 12:31:06;;;;;;;7.82;2.30;;;;;;;;;;5030504;28;20399;-58
2023/09/30 12:33:32;;;;;;;8.73;2.47;;;;;;;;;;5024640;28;20721;-58
2023/09/30 12:35:58;;;;;;;8.13;2.40;;;;;;;;;;5020145;28;20433;-58
2023/09/30 12:38:27;;;;;;;8.30;2.58;;;;;;;;;;5021673;28;20447;-58
2023/09/30 12:40:53;;;;;;;7.60;2.47;;;;;;;;;;5016121;28;20405;-58
2023/09/30 12:43:18;;;;;;;10.88;2.72;;;;;;;;;;5018021;28;20426;-58
2023/09/30 12:45:43;;;;;;;7.70;2.20;;;;;;;;;;5019713;28;20764;-58
2023/09/30 12:48:09;;;;;;;8.07;2.57;;;;;;;;;;5023754;28;20404;-58
2023/09/30 12:50:34;;;;;;;8.20;2.60;;;;;;;;;;5015342;28;20942;-58
2023/09/30 12:52:59;;;;;;;8.83;2.40;;;;;;;;;;5019563;28;20494;-58
2023/09/30 12:55:26;;;;;;;8.17;2.57;;;;;;;;;;5023177;28;20925;-58
2023/09/30 12:57:53;;;;;;;7.50;2.30;;;;;;;;;;5016169;28;20404;-58
2023/09/30 13:00:18;;;;;;;8.50;2.78;;;;;;;;;;5021267;28;20407;-58
2023/09/30 13:02:44;;;;;;;9.17;2.70;;;;;;;;;;5020682;28;20430;-58
2023/09/30 13:05:09;;;;;;;8.07;2.57;;;;;;;;;;5014616;28;20457;-58
2023/09/30 13:07:35;;;;;;;8.10;2.40;;;;;;;;;;5023727;28;20471;-58
2023/09/30 13:10:00;;;;;;;10.07;2.90;;;;;;;;;;5017971;28;20538;-58
2023/09/30 13:12:26;;;;;;;7.28;2.35;;;;;;;;;;5015099;28;20442;-58
2023/09/30 13:14:53;;;;;;;10.43;3.03;;;;;;;;;;5015422;28;20925;-58
2023/09/30 13:17:18;;;;;;;9.10;2.92;;;;;;;;;;5018424;28;20422;-58
2023/09/30 13:19:44;;;;;;;8.00;2.93;;;;;;;;;;5021914;28;20407;-58
2023/09/30 13:22:09;;;;;;;9.27;2.50;;;;;;;;;;5014730;28;20434;-58
2023/09/30 13:24:39;;;;;;;9.03;2.57;;;;;;;;;;5019531;28;20398;-58
2023/09/30 13:27:04;;;;;;;8.23;2.72;;;;;;;;;;5018861;28;20435;-58
2023/09/30 13:29:29;;;;;;;7.53;2.83;;;;;;;;;;5015755;28;20526;-58
2023/09/30 13:31:55;;;;;;;9.70;3.00;;;;;;;;;;5017196;28;20911;-58
2023/09/30 13:34:20;;;;;;;7.88;2.80;;;;;;;;;;5000309;28;20556;-58
2023/09/30 13:36:45;;;;;;;8.68;3.40;;;;;;;;;;5007346;28;20518;-58
2023/09/30 13:39:13;;;;;;;8.63;2.83;;;;;;;;;;4999932;28;20406;-58
2023/09/30 13:41:39;;;;;;;7.97;2.78;;;;;;;;;;5008276;28;20464;-58
2023/09/30 13:44:05;;;;;;;7.40;2.67;;;;;;;;;;5009287;28;20418;-58
2023/09/30 13:46:30;;;;;;;8.80;2.87;;;;;;;;;;5007733;28;20928;-58
2023/09/30 13:48:55;;;;;;;7.50;2.67;;;;;;;;;;5008722;28;20409;-58
2023/09/30 13:51:21;;;;;;;8.37;2.80;;;;;;;;;;5009308;28;20402;-58
2023/09/30 13:53:46;;;;;;;9.40;3.60;;;;;;;;;;5006514;28;20413;-58
2023/09/30 13:56:11;;;;;;;9.13;3.30;;;;;;;;;;5002196;28;20615;-58
2023/09/30 13:58:37;;;;;;;9.03;2.70;;;;;;;;;;5002776;28;20409;-58
2023/09/30 14:01:02;;;;;;;8.77;2.60;;;;;;;;;;5000718;28;20409;-58
2023/09/30 14:03:28;;;;;;;8.52;2.88;;;;;;;;;;5004907;28;20415;-58
2023/09/30 14:05:53;;;;;;;9.63;3.17;;;;;;;;;;5008876;28;20412;-58
2023/09/30 14:08:19;;;;;;;9.97;3.33;;;;;;;;;;5007935;28;20422;-58
2023/09/30 14:10:44;;;;;;;7.70;2.90;;;;;;;;;;5007262;28;20422;-59
2023/09/30 14:13:09;;;;;;;10.97;3.03;;;;;;;;;;5007367;28;20930;-58
2023/09/30 14:15:35;;;;;;;8.57;3.00;;;;;;;;;;5009707;28;20411;-58
2023/09/30 14:18:02;;;;;;;11.13;3.60;;;;;;;;;;5006007;28;20417;-58
2023/09/30 14:20:27;;;;;;;10.48;3.30;;;;;;;;;;4999904;28;20824;-58
2023/09/30 14:22:52;;;;;;;9.20;3.33;;;;;;;;;;5002451;28;20449;-58
2023/09/30 14:25:18;;;;;;;8.53;3.27;;;;;;;;;;5003568;28;20443;-58